sensor_id;sensor_type;location;lat;lon;timestamp;temperature;humidity
3850;DHT22;1940;51.052;13.678;2022-09-09T00:09:18;16.00;83.80
3850;DHT22;1940;51.052;13.678;2022-09-09T00:12:11;16.00;83.90
3850;DHT22;1940;51.052;13.678;2022-09-09T00:14:58;16.00;83.80
3850;DHT22;1940;51.052;13.678;2022-09-09T00:20:28;16.00;83.40
3850;DHT22;1940;51.052;13.678;2022-09-09T00:23:12;16.00;83.30
3850;DHT22;1940;51.052;13.678;2022-09-09T00:28:20;15.90;83.90
3850;DHT22;1940;51.052;13.678;2022-09-09T00:30:47;15.90;84.00
3850;DHT22;1940;51.052;13.678;2022-09-09T00:33:20;15.90;83.40
3850;DHT22;1940;51.052;13.678;2022-09-09T00:35:50;15.90;83.30
3850;DHT22;1940;51.052;13.678;2022-09-09T00:44:03;16.00;83.40
3850;DHT22;1940;51.052;13.678;2022-09-09T00:57:30;16.00;83.10
3850;DHT22;1940;51.052;13.678;2022-09-09T01:00:22;16.00;83.10
3850;DHT22;1940;51.052;13.678;2022-09-09T01:08:08;15.80;83.90
3850;DHT22;1940;51.052;13.678;2022-09-09T01:10:53;15.80;83.10
3850;DHT22;1940;51.052;13.678;2022-09-09T01:13:24;15.90;83.00
3850;DHT22;1940;51.052;13.678;2022-09-09T01:15:51;15.90;82.90
3850;DHT22;1940;51.052;13.678;2022-09-09T01:18:21;16.00;82.60
3850;DHT22;1940;51.052;13.678;2022-09-09T01:21:01;16.00;82.80
3850;DHT22;1940;51.052;13.678;2022-09-09T01:23:36;16.00;82.90
3850;DHT22;1940;51.052;13.678;2022-09-09T01:26:26;15.90;83.20
3850;DHT22;1940;51.052;13.678;2022-09-09T01:28:54;15.80;83.70
3850;DHT22;1940;51.052;13.678;2022-09-09T01:31:27;15.70;84.20
3850;DHT22;1940;51.052;13.678;2022-09-09T01:33:54;15.60;84.40
3850;DHT22;1940;51.052;13.678;2022-09-09T01:39:09;15.50;84.80
3850;DHT22;1940;51.052;13.678;2022-09-09T01:41:35;15.50;84.80
3850;DHT22;1940;51.052;13.678;2022-09-09T01:44:02;15.50;84.70
3850;DHT22;1940;51.052;13.678;2022-09-09T01:46:28;15.50;84.70
3850;DHT22;1940;51.052;13.678;2022-09-09T01:48:56;15.50;84.90
3850;DHT22;1940;51.052;13.678;2022-09-09T01:51:22;15.50;84.90
3850;DHT22;1940;51.052;13.678;2022-09-09T01:53:48;15.50;84.90
3850;DHT22;1940;51.052;13.678;2022-09-09T02:02:11;15.60;85.20
3850;DHT22;1940;51.052;13.678;2022-09-09T02:07:31;15.50;85.70
3850;DHT22;1940;51.052;13.678;2022-09-09T02:10:20;15.40;85.40
3850;DHT22;1940;51.052;13.678;2022-09-09T02:12:55;15.40;85.70
3850;DHT22;1940;51.052;13.678;2022-09-09T02:15:35;15.30;86.30
3850;DHT22;1940;51.052;13.678;2022-09-09T02:18:07;15.30;86.40
3850;DHT22;1940;51.052;13.678;2022-09-09T02:20:37;15.40;86.10
3850;DHT22;1940;51.052;13.678;2022-09-09T02:23:04;15.30;86.20
3850;DHT22;1940;51.052;13.678;2022-09-09T02:25:33;15.30;86.20
3850;DHT22;1940;51.052;13.678;2022-09-09T02:27:59;15.30;86.50
3850;DHT22;1940;51.052;13.678;2022-09-09T02:30:24;15.20;86.50
3850;DHT22;1940;51.052;13.678;2022-09-09T02:32:53;15.20;86.70
3850;DHT22;1940;51.052;13.678;2022-09-09T02:35:23;15.20;86.80
3850;DHT22;1940;51.052;13.678;2022-09-09T02:37:51;15.20;87.10
3850;DHT22;1940;51.052;13.678;2022-09-09T02:40:18;15.20;87.10
3850;DHT22;1940;51.052;13.678;2022-09-09T02:42:46;15.20;87.30
3850;DHT22;1940;51.052;13.678;2022-09-09T02:45:15;15.20;87.60
3850;DHT22;1940;51.052;13.678;2022-09-09T02:48:10;15.20;87.80
3850;DHT22;1940;51.052;13.678;2022-09-09T02:50:36;15.00;88.10
3850;DHT22;1940;51.052;13.678;2022-09-09T02:53:17;15.00;88.40
3850;DHT22;1940;51.052;13.678;2022-09-09T02:58:21;14.90;88.80
3850;DHT22;1940;51.052;13.678;2022-09-09T03:00:48;14.80;89.10
3850;DHT22;1940;51.052;13.678;2022-09-09T03:03:16;14.80;89.20
3850;DHT22;1940;51.052;13.678;2022-09-09T03:05:42;14.80;89.30
3850;DHT22;1940;51.052;13.678;2022-09-09T03:08:08;14.70;89.70
3850;DHT22;1940;51.052;13.678;2022-09-09T03:10:34;14.70;89.70
3850;DHT22;1940;51.052;13.678;2022-09-09T03:13:01;14.60;89.90
3850;DHT22;1940;51.052;13.678;2022-09-09T03:15:27;14.60;89.90
3850;DHT22;1940;51.052;13.678;2022-09-09T03:17:56;14.60;89.90
3850;DHT22;1940;51.052;13.678;2022-09-09T03:20:23;14.60;89.80
3850;DHT22;1940;51.052;13.678;2022-09-09T03:22:51;14.50;90.10
3850;DHT22;1940;51.052;13.678;2022-09-09T03:25:17;14.40;90.40
3850;DHT22;1940;51.052;13.678;2022-09-09T03:27:43;14.40;90.40
3850;DHT22;1940;51.052;13.678;2022-09-09T03:30:09;14.30;90.70
3850;DHT22;1940;51.052;13.678;2022-09-09T03:32:35;14.30;91.00
3850;DHT22;1940;51.052;13.678;2022-09-09T03:35:00;14.30;91.00
3850;DHT22;1940;51.052;13.678;2022-09-09T03:37:26;14.30;91.10
3850;DHT22;1940;51.052;13.678;2022-09-09T03:39:52;14.30;91.20
3850;DHT22;1940;51.052;13.678;2022-09-09T03:42:19;14.40;91.10
3850;DHT22;1940;51.052;13.678;2022-09-09T03:44:46;14.40;90.80
3850;DHT22;1940;51.052;13.678;2022-09-09T03:47:22;14.40;90.70
3850;DHT22;1940;51.052;13.678;2022-09-09T03:49:47;14.50;90.60
3850;DHT22;1940;51.052;13.678;2022-09-09T03:52:13;14.50;90.50
3850;DHT22;1940;51.052;13.678;2022-09-09T03:54:39;14.50;90.60
3850;DHT22;1940;51.052;13.678;2022-09-09T03:57:05;14.50;90.30
3850;DHT22;1940;51.052;13.678;2022-09-09T03:59:31;14.50;90.10
3850;DHT22;1940;51.052;13.678;2022-09-09T04:01:57;14.50;90.10
3850;DHT22;1940;51.052;13.678;2022-09-09T04:04:24;14.50;90.20
3850;DHT22;1940;51.052;13.678;2022-09-09T04:06:49;14.50;90.10
3850;DHT22;1940;51.052;13.678;2022-09-09T04:09:16;14.50;90.30
3850;DHT22;1940;51.052;13.678;2022-09-09T04:11:41;14.40;90.40
3850;DHT22;1940;51.052;13.678;2022-09-09T04:14:07;14.50;90.40
3850;DHT22;1940;51.052;13.678;2022-09-09T04:16:33;14.30;90.40
3850;DHT22;1940;51.052;13.678;2022-09-09T04:18:59;14.20;91.00
3850;DHT22;1940;51.052;13.678;2022-09-09T04:21:25;14.10;91.30
3850;DHT22;1940;51.052;13.678;2022-09-09T04:23:51;14.10;91.70
3850;DHT22;1940;51.052;13.678;2022-09-09T04:26:17;14.20;91.70
3850;DHT22;1940;51.052;13.678;2022-09-09T04:28:43;14.20;91.60
3850;DHT22;1940;51.052;13.678;2022-09-09T04:31:17;14.30;91.60
3850;DHT22;1940;51.052;13.678;2022-09-09T04:33:43;14.30;91.50
3850;DHT22;1940;51.052;13.678;2022-09-09T04:36:09;14.40;91.20
3850;DHT22;1940;51.052;13.678;2022-09-09T04:38:35;14.40;91.10
3850;DHT22;1940;51.052;13.678;2022-09-09T04:41:00;14.30;91.30
3850;DHT22;1940;51.052;13.678;2022-09-09T04:43:26;14.40;91.30
3850;DHT22;1940;51.052;13.678;2022-09-09T04:45:52;14.40;91.40
3850;DHT22;1940;51.052;13.678;2022-09-09T04:48:19;14.40;91.40
3850;DHT22;1940;51.052;13.678;2022-09-09T04:50:56;14.50;91.30
3850;DHT22;1940;51.052;13.678;2022-09-09T04:53:23;14.50;91.30
3850;DHT22;1940;51.052;13.678;2022-09-09T04:55:48;14.50;91.30
3850;DHT22;1940;51.052;13.678;2022-09-09T04:58:14;14.60;91.20
3850;DHT22;1940;51.052;13.678;2022-09-09T05:00:40;14.60;91.10
3850;DHT22;1940;51.052;13.678;2022-09-09T05:03:06;14.70;91.00
3850;DHT22;1940;51.052;13.678;2022-09-09T05:05:35;14.70;90.60
3850;DHT22;1940;51.052;13.678;2022-09-09T05:08:02;15.00;90.90
3850;DHT22;1940;51.052;13.678;2022-09-09T05:10:27;15.60;90.50
3850;DHT22;1940;51.052;13.678;2022-09-09T05:12:53;16.50;88.10
3850;DHT22;1940;51.052;13.678;2022-09-09T05:15:19;17.50;85.40
3850;DHT22;1940;51.052;13.678;2022-09-09T05:17:46;18.50;81.70
3850;DHT22;1940;51.052;13.678;2022-09-09T05:20:12;19.40;77.90
3850;DHT22;1940;51.052;13.678;2022-09-09T05:22:37;19.80;75.30
3850;DHT22;1940;51.052;13.678;2022-09-09T05:25:04;19.70;74.90
3850;DHT22;1940;51.052;13.678;2022-09-09T05:27:29;19.30;75.60
3850;DHT22;1940;51.052;13.678;2022-09-09T05:29:57;19.00;76.50
3850;DHT22;1940;51.052;13.678;2022-09-09T05:32:24;18.60;77.20
3850;DHT22;1940;51.052;13.678;2022-09-09T05:34:49;18.50;77.60
3850;DHT22;1940;51.052;13.678;2022-09-09T05:37:16;18.50;78.30
3850;DHT22;1940;51.052;13.678;2022-09-09T05:39:42;19.10;77.30
3850;DHT22;1940;51.052;13.678;2022-09-09T05:42:07;19.80;75.10
3850;DHT22;1940;51.052;13.678;2022-09-09T05:44:33;19.90;73.90
3850;DHT22;1940;51.052;13.678;2022-09-09T05:46:58;20.00;73.90
3850;DHT22;1940;51.052;13.678;2022-09-09T05:49:24;19.90;73.50
3850;DHT22;1940;51.052;13.678;2022-09-09T05:51:50;19.70;73.70
3850;DHT22;1940;51.052;13.678;2022-09-09T05:54:16;19.50;74.20
3850;DHT22;1940;51.052;13.678;2022-09-09T05:56:42;19.20;74.70
3850;DHT22;1940;51.052;13.678;2022-09-09T05:59:08;19.00;75.30
3850;DHT22;1940;51.052;13.678;2022-09-09T06:01:35;18.70;76.50
3850;DHT22;1940;51.052;13.678;2022-09-09T06:04:01;18.40;77.00
3850;DHT22;1940;51.052;13.678;2022-09-09T06:06:31;18.30;77.40
3850;DHT22;1940;51.052;13.678;2022-09-09T06:09:03;18.20;77.80
3850;DHT22;1940;51.052;13.678;2022-09-09T06:11:30;18.20;78.10
3850;DHT22;1940;51.052;13.678;2022-09-09T06:14:00;18.20;78.80
3850;DHT22;1940;51.052;13.678;2022-09-09T06:16:27;18.20;78.00
3850;DHT22;1940;51.052;13.678;2022-09-09T06:18:54;18.30;77.90
3850;DHT22;1940;51.052;13.678;2022-09-09T06:21:22;18.40;77.60
3850;DHT22;1940;51.052;13.678;2022-09-09T06:23:48;18.40;77.80
3850;DHT22;1940;51.052;13.678;2022-09-09T06:26:27;18.40;77.60
3850;DHT22;1940;51.052;13.678;2022-09-09T06:28:55;18.40;78.10
3850;DHT22;1940;51.052;13.678;2022-09-09T06:31:22;18.50;77.80
3850;DHT22;1940;51.052;13.678;2022-09-09T06:33:50;18.50;78.00
3850;DHT22;1940;51.052;13.678;2022-09-09T06:36:21;18.60;78.10
3850;DHT22;1940;51.052;13.678;2022-09-09T06:38:47;18.70;77.50
3850;DHT22;1940;51.052;13.678;2022-09-09T06:41:15;18.90;77.10
3850;DHT22;1940;51.052;13.678;2022-09-09T06:43:41;19.00;77.00
3850;DHT22;1940;51.052;13.678;2022-09-09T06:46:15;19.00;77.10
3850;DHT22;1940;51.052;13.678;2022-09-09T06:48:42;19.00;76.60
3850;DHT22;1940;51.052;13.678;2022-09-09T06:51:22;19.10;76.60
3850;DHT22;1940;51.052;13.678;2022-09-09T06:53:51;19.20;76.50
3850;DHT22;1940;51.052;13.678;2022-09-09T06:56:18;19.40;76.80
3850;DHT22;1940;51.052;13.678;2022-09-09T06:58:44;19.90;75.50
3850;DHT22;1940;51.052;13.678;2022-09-09T07:01:12;20.40;73.90
3850;DHT22;1940;51.052;13.678;2022-09-09T07:03:39;20.90;72.70
3850;DHT22;1940;51.052;13.678;2022-09-09T07:06:06;21.30;72.00
3850;DHT22;1940;51.052;13.678;2022-09-09T07:08:33;21.50;70.80
3850;DHT22;1940;51.052;13.678;2022-09-09T07:11:06;22.20;70.00
3850;DHT22;1940;51.052;13.678;2022-09-09T07:13:32;23.20;67.40
3850;DHT22;1940;51.052;13.678;2022-09-09T07:16:13;23.60;66.60
3850;DHT22;1940;51.052;13.678;2022-09-09T07:18:39;24.50;65.00
3850;DHT22;1940;51.052;13.678;2022-09-09T07:21:05;25.30;63.10
3850;DHT22;1940;51.052;13.678;2022-09-09T07:23:31;26.00;60.90
3850;DHT22;1940;51.052;13.678;2022-09-09T07:25:57;26.80;60.20
3850;DHT22;1940;51.052;13.678;2022-09-09T07:28:24;27.40;58.20
3850;DHT22;1940;51.052;13.678;2022-09-09T07:31:01;28.10;57.30
3850;DHT22;1940;51.052;13.678;2022-09-09T07:33:31;29.30;55.40
3850;DHT22;1940;51.052;13.678;2022-09-09T07:36:08;29.30;54.20
3850;DHT22;1940;51.052;13.678;2022-09-09T07:38:42;28.70;56.40
3850;DHT22;1940;51.052;13.678;2022-09-09T07:41:10;28.30;57.10
3850;DHT22;1940;51.052;13.678;2022-09-09T07:43:40;28.80;55.80
3850;DHT22;1940;51.052;13.678;2022-09-09T07:46:07;29.30;55.30
3850;DHT22;1940;51.052;13.678;2022-09-09T07:48:33;29.80;53.60
3850;DHT22;1940;51.052;13.678;2022-09-09T07:51:06;29.50;55.00
3850;DHT22;1940;51.052;13.678;2022-09-09T07:53:31;30.20;53.60
3850;DHT22;1940;51.052;13.678;2022-09-09T07:56:05;31.00;51.80
3850;DHT22;1940;51.052;13.678;2022-09-09T07:58:30;30.90;52.30
3850;DHT22;1940;51.052;13.678;2022-09-09T08:00:56;30.10;52.80
3850;DHT22;1940;51.052;13.678;2022-09-09T08:03:22;29.60;53.70
3850;DHT22;1940;51.052;13.678;2022-09-09T08:05:48;28.80;55.30
3850;DHT22;1940;51.052;13.678;2022-09-09T08:08:14;28.30;56.20
3850;DHT22;1940;51.052;13.678;2022-09-09T08:10:41;27.50;58.10
3850;DHT22;1940;51.052;13.678;2022-09-09T08:13:08;26.80;60.10
3850;DHT22;1940;51.052;13.678;2022-09-09T08:15:33;25.70;63.20
3850;DHT22;1940;51.052;13.678;2022-09-09T08:17:59;25.20;63.70
3850;DHT22;1940;51.052;13.678;2022-09-09T08:20:25;25.10;65.60
3850;DHT22;1940;51.052;13.678;2022-09-09T08:22:50;24.70;64.90
3850;DHT22;1940;51.052;13.678;2022-09-09T08:25:16;24.70;65.50
3850;DHT22;1940;51.052;13.678;2022-09-09T08:27:41;24.80;65.40
3850;DHT22;1940;51.052;13.678;2022-09-09T08:30:07;24.80;65.60
3850;DHT22;1940;51.052;13.678;2022-09-09T08:32:33;24.50;66.40
3850;DHT22;1940;51.052;13.678;2022-09-09T08:35:01;24.20;68.00
3850;DHT22;1940;51.052;13.678;2022-09-09T08:37:26;24.00;68.30
3850;DHT22;1940;51.052;13.678;2022-09-09T08:39:52;24.10;68.50
3850;DHT22;1940;51.052;13.678;2022-09-09T08:45:10;23.80;69.30
3850;DHT22;1940;51.052;13.678;2022-09-09T08:47:50;23.80;69.50
3850;DHT22;1940;51.052;13.678;2022-09-09T08:55:52;24.90;67.70
3850;DHT22;1940;51.052;13.678;2022-09-09T08:58:25;25.70;64.00
3850;DHT22;1940;51.052;13.678;2022-09-09T09:01:17;25.90;62.40
3850;DHT22;1940;51.052;13.678;2022-09-09T09:04:11;25.70;62.10
3850;DHT22;1940;51.052;13.678;2022-09-09T09:06:59;25.50;61.90
3850;DHT22;1940;51.052;13.678;2022-09-09T09:09:40;25.00;61.70
3850;DHT22;1940;51.052;13.678;2022-09-09T09:12:16;24.60;63.10
3850;DHT22;1940;51.052;13.678;2022-09-09T09:14:43;24.20;63.80
3850;DHT22;1940;51.052;13.678;2022-09-09T09:17:14;24.00;64.40
3850;DHT22;1940;51.052;13.678;2022-09-09T09:19:41;23.50;65.10
3850;DHT22;1940;51.052;13.678;2022-09-09T09:22:38;23.20;65.50
3850;DHT22;1940;51.052;13.678;2022-09-09T09:25:11;22.60;66.50
3850;DHT22;1940;51.052;13.678;2022-09-09T09:28:03;22.20;68.50
3850;DHT22;1940;51.052;13.678;2022-09-09T09:30:42;22.00;68.30
3850;DHT22;1940;51.052;13.678;2022-09-09T09:33:26;22.10;69.10
3850;DHT22;1940;51.052;13.678;2022-09-09T09:35:53;22.20;69.10
3850;DHT22;1940;51.052;13.678;2022-09-09T09:38:26;22.10;69.30
3850;DHT22;1940;51.052;13.678;2022-09-09T09:40:57;22.30;69.00
3850;DHT22;1940;51.052;13.678;2022-09-09T09:43:37;22.40;70.00
3850;DHT22;1940;51.052;13.678;2022-09-09T09:46:16;22.80;69.70
3850;DHT22;1940;51.052;13.678;2022-09-09T09:48:43;23.80;67.60
3850;DHT22;1940;51.052;13.678;2022-09-09T09:51:11;25.70;63.10
3850;DHT22;1940;51.052;13.678;2022-09-09T09:53:39;27.30;60.40
3850;DHT22;1940;51.052;13.678;2022-09-09T09:56:12;27.70;59.40
3850;DHT22;1940;51.052;13.678;2022-09-09T10:01:23;29.90;53.80
3850;DHT22;1940;51.052;13.678;2022-09-09T10:04:13;30.30;53.30
3850;DHT22;1940;51.052;13.678;2022-09-09T10:06:40;31.10;53.30
3850;DHT22;1940;51.052;13.678;2022-09-09T10:09:22;31.70;51.30
3850;DHT22;1940;51.052;13.678;2022-09-09T10:12:01;32.40;49.90
3850;DHT22;1940;51.052;13.678;2022-09-09T10:14:55;33.30;48.90
3850;DHT22;1940;51.052;13.678;2022-09-09T10:22:35;33.20;47.50
3850;DHT22;1940;51.052;13.678;2022-09-09T10:35:52;33.00;48.80
3850;DHT22;1940;51.052;13.678;2022-09-09T10:38:41;33.40;48.40
3850;DHT22;1940;51.052;13.678;2022-09-09T10:41:25;33.80;47.80
3850;DHT22;1940;51.052;13.678;2022-09-09T10:44:20;33.50;49.00
3850;DHT22;1940;51.052;13.678;2022-09-09T10:50:14;33.20;49.20
3850;DHT22;1940;51.052;13.678;2022-09-09T10:53:02;32.20;50.80
3850;DHT22;1940;51.052;13.678;2022-09-09T10:55:56;32.40;50.80
3850;DHT22;1940;51.052;13.678;2022-09-09T10:58:44;31.80;51.60
3850;DHT22;1940;51.052;13.678;2022-09-09T11:01:28;29.90;54.60
3850;DHT22;1940;51.052;13.678;2022-09-09T11:04:00;28.50;57.10
3850;DHT22;1940;51.052;13.678;2022-09-09T11:06:40;27.50;58.80
3850;DHT22;1940;51.052;13.678;2022-09-09T11:09:19;26.60;60.40
3850;DHT22;1940;51.052;13.678;2022-09-09T11:11:55;25.80;61.80
3850;DHT22;1940;51.052;13.678;2022-09-09T11:17:25;25.00;63.70
3850;DHT22;1940;51.052;13.678;2022-09-09T11:19:52;24.60;65.00
3850;DHT22;1940;51.052;13.678;2022-09-09T11:22:48;24.40;66.00
3850;DHT22;1940;51.052;13.678;2022-09-09T11:25:18;24.30;66.30
3850;DHT22;1940;51.052;13.678;2022-09-09T11:30:26;24.00;67.20
3850;DHT22;1940;51.052;13.678;2022-09-09T11:38:21;23.60;68.70
3850;DHT22;1940;51.052;13.678;2022-09-09T11:40:55;23.90;69.20
3850;DHT22;1940;51.052;13.678;2022-09-09T11:43:28;24.10;68.00
3850;DHT22;1940;51.052;13.678;2022-09-09T11:45:57;24.10;68.00
3850;DHT22;1940;51.052;13.678;2022-09-09T11:51:04;24.10;68.90
3850;DHT22;1940;51.052;13.678;2022-09-09T11:53:30;24.00;68.90
3850;DHT22;1940;51.052;13.678;2022-09-09T11:56:12;24.20;68.90
3850;DHT22;1940;51.052;13.678;2022-09-09T11:58:55;24.40;67.90
3850;DHT22;1940;51.052;13.678;2022-09-09T12:01:41;24.50;67.70
3850;DHT22;1940;51.052;13.678;2022-09-09T12:09:27;24.10;68.20
3850;DHT22;1940;51.052;13.678;2022-09-09T12:14:44;24.00;68.50
3850;DHT22;1940;51.052;13.678;2022-09-09T12:17:21;23.90;68.80
3850;DHT22;1940;51.052;13.678;2022-09-09T12:19:48;23.90;69.40
3850;DHT22;1940;51.052;13.678;2022-09-09T12:26:12;23.70;69.30
3850;DHT22;1940;51.052;13.678;2022-09-09T12:34:23;23.40;70.60
3850;DHT22;1940;51.052;13.678;2022-09-09T12:37:02;23.50;70.60
3850;DHT22;1940;51.052;13.678;2022-09-09T12:39:36;23.70;70.20
3850;DHT22;1940;51.052;13.678;2022-09-09T12:42:03;23.90;69.70
3850;DHT22;1940;51.052;13.678;2022-09-09T12:44:29;23.90;69.90
3850;DHT22;1940;51.052;13.678;2022-09-09T12:46:58;24.00;69.40
3850;DHT22;1940;51.052;13.678;2022-09-09T12:49:34;24.00;70.00
3850;DHT22;1940;51.052;13.678;2022-09-09T12:52:09;24.00;69.80
3850;DHT22;1940;51.052;13.678;2022-09-09T12:54:44;24.10;68.50
3850;DHT22;1940;51.052;13.678;2022-09-09T12:57:12;24.30;68.70
3850;DHT22;1940;51.052;13.678;2022-09-09T12:59:40;24.50;67.60
3850;DHT22;1940;51.052;13.678;2022-09-09T13:02:18;24.30;67.50
3850;DHT22;1940;51.052;13.678;2022-09-09T13:04:43;24.10;68.10
3850;DHT22;1940;51.052;13.678;2022-09-09T13:07:12;24.00;68.00
3850;DHT22;1940;51.052;13.678;2022-09-09T13:09:39;23.90;68.50
3850;DHT22;1940;51.052;13.678;2022-09-09T13:12:06;23.80;69.00
3850;DHT22;1940;51.052;13.678;2022-09-09T13:14:37;23.90;69.00
3850;DHT22;1940;51.052;13.678;2022-09-09T13:17:05;24.10;67.80
3850;DHT22;1940;51.052;13.678;2022-09-09T13:19:39;24.20;67.50
3850;DHT22;1940;51.052;13.678;2022-09-09T13:22:30;24.30;66.40
3850;DHT22;1940;51.052;13.678;2022-09-09T13:25:05;24.40;65.60
3850;DHT22;1940;51.052;13.678;2022-09-09T13:27:35;24.30;66.10
3850;DHT22;1940;51.052;13.678;2022-09-09T13:30:40;24.50;66.90
3850;DHT22;1940;51.052;13.678;2022-09-09T13:36:01;24.60;67.30
3850;DHT22;1940;51.052;13.678;2022-09-09T13:38:30;24.60;65.60
3850;DHT22;1940;51.052;13.678;2022-09-09T13:41:01;24.70;65.10
3850;DHT22;1940;51.052;13.678;2022-09-09T13:43:31;24.80;65.40
3850;DHT22;1940;51.052;13.678;2022-09-09T13:46:01;24.60;66.50
3850;DHT22;1940;51.052;13.678;2022-09-09T13:48:27;24.60;67.00
3850;DHT22;1940;51.052;13.678;2022-09-09T13:51:04;24.50;65.40
3850;DHT22;1940;51.052;13.678;2022-09-09T13:53:30;24.40;66.20
3850;DHT22;1940;51.052;13.678;2022-09-09T13:55:57;24.50;66.20
3850;DHT22;1940;51.052;13.678;2022-09-09T13:58:23;24.50;66.50
3850;DHT22;1940;51.052;13.678;2022-09-09T14:00:50;24.70;66.10
3850;DHT22;1940;51.052;13.678;2022-09-09T14:03:16;24.80;64.70
3850;DHT22;1940;51.052;13.678;2022-09-09T14:05:42;24.60;64.70
3850;DHT22;1940;51.052;13.678;2022-09-09T14:08:15;24.70;64.50
3850;DHT22;1940;51.052;13.678;2022-09-09T14:10:41;24.70;64.10
3850;DHT22;1940;51.052;13.678;2022-09-09T14:13:06;24.70;64.40
3850;DHT22;1940;51.052;13.678;2022-09-09T14:15:33;24.80;65.00
3850;DHT22;1940;51.052;13.678;2022-09-09T14:17:59;24.80;65.50
3850;DHT22;1940;51.052;13.678;2022-09-09T14:20:24;24.70;66.70
3850;DHT22;1940;51.052;13.678;2022-09-09T14:22:50;24.80;66.10
3850;DHT22;1940;51.052;13.678;2022-09-09T14:25:15;24.90;66.20
3850;DHT22;1940;51.052;13.678;2022-09-09T14:27:41;24.90;66.60
3850;DHT22;1940;51.052;13.678;2022-09-09T14:30:08;24.70;67.10
3850;DHT22;1940;51.052;13.678;2022-09-09T14:32:33;24.60;65.90
3850;DHT22;1940;51.052;13.678;2022-09-09T14:34:59;24.80;65.50
3850;DHT22;1940;51.052;13.678;2022-09-09T14:37:25;24.90;64.80
3850;DHT22;1940;51.052;13.678;2022-09-09T14:39:50;24.90;63.80
3850;DHT22;1940;51.052;13.678;2022-09-09T14:42:16;25.00;63.80
3850;DHT22;1940;51.052;13.678;2022-09-09T14:44:42;25.00;63.90
3850;DHT22;1940;51.052;13.678;2022-09-09T14:47:08;25.20;63.70
3850;DHT22;1940;51.052;13.678;2022-09-09T14:49:34;25.20;63.70
3850;DHT22;1940;51.052;13.678;2022-09-09T14:52:00;25.30;62.90
3850;DHT22;1940;51.052;13.678;2022-09-09T14:54:26;25.50;62.80
3850;DHT22;1940;51.052;13.678;2022-09-09T14:56:51;25.40;61.20
3850;DHT22;1940;51.052;13.678;2022-09-09T14:59:18;25.30;61.70
3850;DHT22;1940;51.052;13.678;2022-09-09T15:01:43;25.40;63.30
3850;DHT22;1940;51.052;13.678;2022-09-09T15:04:12;25.40;64.30
3850;DHT22;1940;51.052;13.678;2022-09-09T15:06:37;25.10;61.40
3850;DHT22;1940;51.052;13.678;2022-09-09T15:09:05;24.90;61.90
3850;DHT22;1940;51.052;13.678;2022-09-09T15:11:33;24.90;60.60
3850;DHT22;1940;51.052;13.678;2022-09-09T15:14:03;24.70;59.90
3850;DHT22;1940;51.052;13.678;2022-09-09T15:16:29;24.60;59.50
3850;DHT22;1940;51.052;13.678;2022-09-09T15:18:57;24.60;59.60
3850;DHT22;1940;51.052;13.678;2022-09-09T15:21:25;24.60;60.70
3850;DHT22;1940;51.052;13.678;2022-09-09T15:23:51;24.50;59.80
3850;DHT22;1940;51.052;13.678;2022-09-09T15:26:17;24.50;60.10
3850;DHT22;1940;51.052;13.678;2022-09-09T15:28:44;24.60;59.80
3850;DHT22;1940;51.052;13.678;2022-09-09T15:31:22;24.60;59.40
3850;DHT22;1940;51.052;13.678;2022-09-09T15:33:53;24.60;60.10
3850;DHT22;1940;51.052;13.678;2022-09-09T15:36:21;24.60;59.40
3850;DHT22;1940;51.052;13.678;2022-09-09T15:38:48;24.70;59.20
3850;DHT22;1940;51.052;13.678;2022-09-09T15:41:14;24.50;58.70
3850;DHT22;1940;51.052;13.678;2022-09-09T15:43:48;24.40;59.10
3850;DHT22;1940;51.052;13.678;2022-09-09T15:46:33;24.30;59.10
3850;DHT22;1940;51.052;13.678;2022-09-09T15:51:40;24.20;59.50
3850;DHT22;1940;51.052;13.678;2022-09-09T15:54:06;24.20;59.80
3850;DHT22;1940;51.052;13.678;2022-09-09T15:56:32;24.20;59.80
3850;DHT22;1940;51.052;13.678;2022-09-09T15:58:59;24.20;60.70
3850;DHT22;1940;51.052;13.678;2022-09-09T16:01:26;24.20;60.70
3850;DHT22;1940;51.052;13.678;2022-09-09T16:03:52;24.30;60.60
3850;DHT22;1940;51.052;13.678;2022-09-09T16:06:19;24.40;60.60
3850;DHT22;1940;51.052;13.678;2022-09-09T16:08:47;24.50;61.70
3850;DHT22;1940;51.052;13.678;2022-09-09T16:11:20;24.50;61.50
3850;DHT22;1940;51.052;13.678;2022-09-09T16:13:47;24.50;61.60
3850;DHT22;1940;51.052;13.678;2022-09-09T16:16:18;24.50;63.00
3850;DHT22;1940;51.052;13.678;2022-09-09T16:18:50;24.30;63.50
3850;DHT22;1940;51.052;13.678;2022-09-09T16:21:18;24.10;64.20
3850;DHT22;1940;51.052;13.678;2022-09-09T16:23:44;23.80;65.00
3850;DHT22;1940;51.052;13.678;2022-09-09T16:26:14;23.70;65.50
3850;DHT22;1940;51.052;13.678;2022-09-09T16:28:40;23.70;65.80
3850;DHT22;1940;51.052;13.678;2022-09-09T16:31:08;23.60;66.20
3850;DHT22;1940;51.052;13.678;2022-09-09T16:33:35;23.60;68.20
3850;DHT22;1940;51.052;13.678;2022-09-09T16:36:13;23.50;69.40
3850;DHT22;1940;51.052;13.678;2022-09-09T16:38:40;23.20;70.00
3850;DHT22;1940;51.052;13.678;2022-09-09T16:41:06;22.90;70.80
3850;DHT22;1940;51.052;13.678;2022-09-09T16:43:33;22.80;71.40
3850;DHT22;1940;51.052;13.678;2022-09-09T16:45:59;22.70;71.80
3850;DHT22;1940;51.052;13.678;2022-09-09T16:48:33;22.70;71.80
3850;DHT22;1940;51.052;13.678;2022-09-09T16:51:12;22.70;71.90
3850;DHT22;1940;51.052;13.678;2022-09-09T16:53:39;22.70;71.80
3850;DHT22;1940;51.052;13.678;2022-09-09T16:56:09;22.70;72.00
3850;DHT22;1940;51.052;13.678;2022-09-09T16:58:35;22.80;71.90
3850;DHT22;1940;51.052;13.678;2022-09-09T17:01:02;22.90;71.60
3850;DHT22;1940;51.052;13.678;2022-09-09T17:03:29;22.90;71.20
3850;DHT22;1940;51.052;13.678;2022-09-09T17:05:54;22.90;71.10
3850;DHT22;1940;51.052;13.678;2022-09-09T17:08:20;22.90;70.10
3850;DHT22;1940;51.052;13.678;2022-09-09T17:10:45;22.90;70.00
3850;DHT22;1940;51.052;13.678;2022-09-09T17:13:12;22.90;69.40
3850;DHT22;1940;51.052;13.678;2022-09-09T17:15:42;22.80;67.90
3850;DHT22;1940;51.052;13.678;2022-09-09T17:18:09;22.60;65.70
3850;DHT22;1940;51.052;13.678;2022-09-09T17:20:39;22.40;64.60
3850;DHT22;1940;51.052;13.678;2022-09-09T17:23:06;22.20;63.70
3850;DHT22;1940;51.052;13.678;2022-09-09T17:25:32;22.10;63.60
3850;DHT22;1940;51.052;13.678;2022-09-09T17:27:58;22.00;63.70
3850;DHT22;1940;51.052;13.678;2022-09-09T17:30:24;22.00;63.20
3850;DHT22;1940;51.052;13.678;2022-09-09T17:32:49;21.90;64.10
3850;DHT22;1940;51.052;13.678;2022-09-09T17:35:15;21.80;64.30
3850;DHT22;1940;51.052;13.678;2022-09-09T17:37:40;21.70;64.40
3850;DHT22;1940;51.052;13.678;2022-09-09T17:40:07;21.60;64.80
3850;DHT22;1940;51.052;13.678;2022-09-09T17:42:33;21.40;64.80
3850;DHT22;1940;51.052;13.678;2022-09-09T17:44:59;21.40;65.10
3850;DHT22;1940;51.052;13.678;2022-09-09T17:47:25;21.20;65.50
3850;DHT22;1940;51.052;13.678;2022-09-09T17:49:51;21.20;65.40
3850;DHT22;1940;51.052;13.678;2022-09-09T17:52:16;21.10;65.40
3850;DHT22;1940;51.052;13.678;2022-09-09T17:54:42;21.00;65.60
3850;DHT22;1940;51.052;13.678;2022-09-09T17:57:08;21.00;65.80
3850;DHT22;1940;51.052;13.678;2022-09-09T17:59:34;20.80;66.60